LIRZ/PEG METAR and TAF weather

Enter ICAO airport designator
Station Type Date Time Source
LIRZ METAR 2020/06/06 00:50 UTC NOAA

LIRZ 060050Z AUTO 01003KT 9999 FEW048/// 13/12 Q1007


Station Type Date Time Source
LIRZ Decoded METAR 2020/06/06 00:50 UTC NOAA

Perugia, Italy (LIRZ) 43-05N 012-30E 205M
Jun 05, 2020 - 08:50 PM EDT / 2020.06.06 0050 UTC
Wind: from the N (010 degrees) at 3 MPH (3 KT):0
Visibility: greater than 7 mile(s):0
Sky conditions: mostly clear
Temperature: 55 F (13 C)
Dew Point: 53 F (12 C)
Relative Humidity: 93%
Pressure (altimeter): 29.74 in. Hg (1007 hPa)
ob: LIRZ 060050Z AUTO 01003KT 9999 FEW048/// 13/12 Q1007
cycle: 1

Station Type Date Time Source
LIRZ TAF 2020/06/05 18:21 UTC NOAA

TAF TAF LIRZ 051700Z 0518/0618 VRB05KT 9999 SCT030

Example: see airport list